sensor_id;sensor_type;location;lat;lon;timestamp;temperature;humidity
4356;DHT22;64374;51.482;7.408;2023-07-31T00:01:11;17.20;99.90
4356;DHT22;64374;51.482;7.408;2023-07-31T00:03:39;17.10;99.90
4356;DHT22;64374;51.482;7.408;2023-07-31T00:06:07;17.00;99.90
4356;DHT22;64374;51.482;7.408;2023-07-31T00:08:36;17.20;99.90
4356;DHT22;64374;51.482;7.408;2023-07-31T00:11:04;17.30;99.90
4356;DHT22;64374;51.482;7.408;2023-07-31T00:13:36;17.10;99.90
4356;DHT22;64374;51.482;7.408;2023-07-31T00:16:07;17.40;99.90
4356;DHT22;64374;51.482;7.408;2023-07-31T00:18:37;17.30;99.90
4356;DHT22;64374;51.482;7.408;2023-07-31T00:21:05;17.20;99.90
4356;DHT22;64374;51.482;7.408;2023-07-31T00:23:33;17.30;99.90
4356;DHT22;64374;51.482;7.408;2023-07-31T00:26:04;17.30;99.90
4356;DHT22;64374;51.482;7.408;2023-07-31T00:28:33;17.30;99.90
4356;DHT22;64374;51.482;7.408;2023-07-31T00:31:02;17.30;99.90
4356;DHT22;64374;51.482;7.408;2023-07-31T00:33:31;17.40;99.90
4356;DHT22;64374;51.482;7.408;2023-07-31T00:36:00;17.30;99.90
4356;DHT22;64374;51.482;7.408;2023-07-31T00:38:36;17.30;99.90
4356;DHT22;64374;51.482;7.408;2023-07-31T00:41:05;17.10;99.90
4356;DHT22;64374;51.482;7.408;2023-07-31T00:43:33;17.00;99.90
4356;DHT22;64374;51.482;7.408;2023-07-31T00:46:09;17.10;99.90
4356;DHT22;64374;51.482;7.408;2023-07-31T00:48:38;17.20;99.90
4356;DHT22;64374;51.482;7.408;2023-07-31T00:51:10;17.40;99.90
4356;DHT22;64374;51.482;7.408;2023-07-31T00:53:41;17.40;99.90
4356;DHT22;64374;51.482;7.408;2023-07-31T00:56:11;17.50;99.90
4356;DHT22;64374;51.482;7.408;2023-07-31T00:58:40;17.50;99.90
4356;DHT22;64374;51.482;7.408;2023-07-31T01:01:08;17.30;99.90
4356;DHT22;64374;51.482;7.408;2023-07-31T01:03:37;17.20;99.90
4356;DHT22;64374;51.482;7.408;2023-07-31T01:06:23;17.30;99.90
4356;DHT22;64374;51.482;7.408;2023-07-31T01:09:02;17.20;99.90
4356;DHT22;64374;51.482;7.408;2023-07-31T01:11:34;17.30;99.90
4356;DHT22;64374;51.482;7.408;2023-07-31T01:14:03;17.30;99.90
4356;DHT22;64374;51.482;7.408;2023-07-31T01:16:31;17.40;99.90
4356;DHT22;64374;51.482;7.408;2023-07-31T01:19:02;17.40;99.90
4356;DHT22;64374;51.482;7.408;2023-07-31T01:21:56;17.30;99.90
4356;DHT22;64374;51.482;7.408;2023-07-31T01:24:31;17.40;99.90
4356;DHT22;64374;51.482;7.408;2023-07-31T01:27:09;17.10;99.90
4356;DHT22;64374;51.482;7.408;2023-07-31T01:29:42;17.30;99.90
4356;DHT22;64374;51.482;7.408;2023-07-31T01:32:18;17.30;99.90
4356;DHT22;64374;51.482;7.408;2023-07-31T01:34:47;17.40;99.90
4356;DHT22;64374;51.482;7.408;2023-07-31T01:37:16;17.30;99.90
4356;DHT22;64374;51.482;7.408;2023-07-31T01:39:45;17.30;99.90
4356;DHT22;64374;51.482;7.408;2023-07-31T01:42:24;17.30;99.90
4356;DHT22;64374;51.482;7.408;2023-07-31T01:45:01;17.50;99.90
4356;DHT22;64374;51.482;7.408;2023-07-31T01:47:32;17.40;99.90
4356;DHT22;64374;51.482;7.408;2023-07-31T01:50:03;17.40;99.90
4356;DHT22;64374;51.482;7.408;2023-07-31T01:52:34;17.50;99.90
4356;DHT22;64374;51.482;7.408;2023-07-31T01:55:04;17.50;99.90
4356;DHT22;64374;51.482;7.408;2023-07-31T01:57:33;17.60;99.90
4356;DHT22;64374;51.482;7.408;2023-07-31T02:00:05;17.70;99.90
4356;DHT22;64374;51.482;7.408;2023-07-31T02:02:42;17.60;99.90
4356;DHT22;64374;51.482;7.408;2023-07-31T02:05:13;17.60;99.90
4356;DHT22;64374;51.482;7.408;2023-07-31T02:07:44;17.70;99.90
4356;DHT22;64374;51.482;7.408;2023-07-31T02:10:12;17.50;99.90
4356;DHT22;64374;51.482;7.408;2023-07-31T02:12:45;17.60;99.90
4356;DHT22;64374;51.482;7.408;2023-07-31T02:15:15;17.60;99.90
4356;DHT22;64374;51.482;7.408;2023-07-31T02:17:43;17.10;99.90
4356;DHT22;64374;51.482;7.408;2023-07-31T02:20:14;17.30;99.90
4356;DHT22;64374;51.482;7.408;2023-07-31T02:22:42;17.20;99.90
4356;DHT22;64374;51.482;7.408;2023-07-31T02:25:16;16.90;99.90
4356;DHT22;64374;51.482;7.408;2023-07-31T02:27:50;17.10;99.90
4356;DHT22;64374;51.482;7.408;2023-07-31T02:30:18;17.50;99.90
4356;DHT22;64374;51.482;7.408;2023-07-31T02:32:46;17.60;99.90
4356;DHT22;64374;51.482;7.408;2023-07-31T02:35:16;17.60;99.90
4356;DHT22;64374;51.482;7.408;2023-07-31T02:37:46;17.40;99.90
4356;DHT22;64374;51.482;7.408;2023-07-31T02:40:14;17.50;99.90
4356;DHT22;64374;51.482;7.408;2023-07-31T02:42:42;17.40;99.90
4356;DHT22;64374;51.482;7.408;2023-07-31T02:45:19;17.50;99.90
4356;DHT22;64374;51.482;7.408;2023-07-31T02:47:47;17.50;99.90
4356;DHT22;64374;51.482;7.408;2023-07-31T02:50:18;17.60;99.90
4356;DHT22;64374;51.482;7.408;2023-07-31T02:52:46;17.60;99.90
4356;DHT22;64374;51.482;7.408;2023-07-31T02:55:17;17.50;99.90
4356;DHT22;64374;51.482;7.408;2023-07-31T02:57:45;17.60;99.90
4356;DHT22;64374;51.482;7.408;2023-07-31T03:00:14;17.50;99.90
4356;DHT22;64374;51.482;7.408;2023-07-31T03:02:47;17.50;99.90
4356;DHT22;64374;51.482;7.408;2023-07-31T03:05:15;17.60;99.90
4356;DHT22;64374;51.482;7.408;2023-07-31T03:07:45;17.70;99.90
4356;DHT22;64374;51.482;7.408;2023-07-31T03:10:23;17.40;99.90
4356;DHT22;64374;51.482;7.408;2023-07-31T03:12:51;17.30;99.90
4356;DHT22;64374;51.482;7.408;2023-07-31T03:15:20;17.30;99.90
4356;DHT22;64374;51.482;7.408;2023-07-31T03:17:52;17.30;99.90
4356;DHT22;64374;51.482;7.408;2023-07-31T03:20:29;17.30;99.90
4356;DHT22;64374;51.482;7.408;2023-07-31T03:22:58;17.30;99.90
4356;DHT22;64374;51.482;7.408;2023-07-31T03:25:26;17.30;99.90
4356;DHT22;64374;51.482;7.408;2023-07-31T03:27:54;17.30;99.90
4356;DHT22;64374;51.482;7.408;2023-07-31T03:30:26;17.50;99.90
4356;DHT22;64374;51.482;7.408;2023-07-31T03:32:55;17.70;99.90
4356;DHT22;64374;51.482;7.408;2023-07-31T03:35:24;17.40;99.90
4356;DHT22;64374;51.482;7.408;2023-07-31T03:37:53;17.40;99.90
4356;DHT22;64374;51.482;7.408;2023-07-31T03:40:24;17.60;99.90
4356;DHT22;64374;51.482;7.408;2023-07-31T03:42:53;17.70;99.90
4356;DHT22;64374;51.482;7.408;2023-07-31T03:45:23;17.90;99.90
4356;DHT22;64374;51.482;7.408;2023-07-31T03:47:51;17.90;99.90
4356;DHT22;64374;51.482;7.408;2023-07-31T03:50:22;17.70;99.90
4356;DHT22;64374;51.482;7.408;2023-07-31T03:52:58;17.80;99.90
4356;DHT22;64374;51.482;7.408;2023-07-31T03:55:26;17.70;99.90
4356;DHT22;64374;51.482;7.408;2023-07-31T03:57:57;17.70;99.90
4356;DHT22;64374;51.482;7.408;2023-07-31T04:00:27;17.70;99.90
4356;DHT22;64374;51.482;7.408;2023-07-31T04:02:55;17.60;99.90
4356;DHT22;64374;51.482;7.408;2023-07-31T04:05:33;17.50;99.90
4356;DHT22;64374;51.482;7.408;2023-07-31T04:08:01;17.60;99.90
4356;DHT22;64374;51.482;7.408;2023-07-31T04:10:29;17.80;99.90
4356;DHT22;64374;51.482;7.408;2023-07-31T04:13:00;17.70;99.90
4356;DHT22;64374;51.482;7.408;2023-07-31T04:15:28;17.80;99.90
4356;DHT22;64374;51.482;7.408;2023-07-31T04:17:56;17.80;99.90
4356;DHT22;64374;51.482;7.408;2023-07-31T04:20:27;17.70;99.90
4356;DHT22;64374;51.482;7.408;2023-07-31T04:22:59;17.60;99.90
4356;DHT22;64374;51.482;7.408;2023-07-31T04:25:30;17.60;99.90
4356;DHT22;64374;51.482;7.408;2023-07-31T04:27:58;17.70;99.90
4356;DHT22;64374;51.482;7.408;2023-07-31T04:30:28;18.10;99.90
4356;DHT22;64374;51.482;7.408;2023-07-31T04:32:57;17.90;99.90
4356;DHT22;64374;51.482;7.408;2023-07-31T04:35:27;17.80;99.90
4356;DHT22;64374;51.482;7.408;2023-07-31T04:37:58;17.90;99.90
4356;DHT22;64374;51.482;7.408;2023-07-31T04:40:29;17.90;99.90
4356;DHT22;64374;51.482;7.408;2023-07-31T04:42:58;17.90;99.90
4356;DHT22;64374;51.482;7.408;2023-07-31T04:45:26;18.00;99.90
4356;DHT22;64374;51.482;7.408;2023-07-31T04:47:55;18.10;99.90
4356;DHT22;64374;51.482;7.408;2023-07-31T04:50:23;17.90;99.90
4356;DHT22;64374;51.482;7.408;2023-07-31T04:52:51;17.90;99.90
4356;DHT22;64374;51.482;7.408;2023-07-31T04:55:25;17.60;99.90
4356;DHT22;64374;51.482;7.408;2023-07-31T04:57:53;17.50;99.90
4356;DHT22;64374;51.482;7.408;2023-07-31T05:00:22;17.50;99.90
4356;DHT22;64374;51.482;7.408;2023-07-31T05:03:17;17.60;99.90
4356;DHT22;64374;51.482;7.408;2023-07-31T05:05:48;17.60;99.90
4356;DHT22;64374;51.482;7.408;2023-07-31T05:08:18;17.50;99.90
4356;DHT22;64374;51.482;7.408;2023-07-31T05:10:48;17.70;99.90
4356;DHT22;64374;51.482;7.408;2023-07-31T05:13:18;17.80;99.90
4356;DHT22;64374;51.482;7.408;2023-07-31T05:15:47;17.80;99.90
4356;DHT22;64374;51.482;7.408;2023-07-31T05:18:18;18.00;99.90
4356;DHT22;64374;51.482;7.408;2023-07-31T05:20:46;18.00;99.90
4356;DHT22;64374;51.482;7.408;2023-07-31T05:23:14;18.10;99.90
4356;DHT22;64374;51.482;7.408;2023-07-31T05:25:43;18.00;99.90
4356;DHT22;64374;51.482;7.408;2023-07-31T05:28:13;17.90;99.90
4356;DHT22;64374;51.482;7.408;2023-07-31T05:30:41;17.70;99.90
4356;DHT22;64374;51.482;7.408;2023-07-31T05:33:09;17.80;99.90
4356;DHT22;64374;51.482;7.408;2023-07-31T05:35:40;17.80;99.90
4356;DHT22;64374;51.482;7.408;2023-07-31T05:38:11;17.90;99.90
4356;DHT22;64374;51.482;7.408;2023-07-31T05:40:39;17.70;99.90
4356;DHT22;64374;51.482;7.408;2023-07-31T05:43:07;17.70;99.90
4356;DHT22;64374;51.482;7.408;2023-07-31T05:45:47;17.60;99.90
4356;DHT22;64374;51.482;7.408;2023-07-31T05:48:17;17.50;99.90
4356;DHT22;64374;51.482;7.408;2023-07-31T05:50:47;17.60;99.90
4356;DHT22;64374;51.482;7.408;2023-07-31T05:53:15;17.70;99.90
4356;DHT22;64374;51.482;7.408;2023-07-31T05:55:43;17.70;99.90
4356;DHT22;64374;51.482;7.408;2023-07-31T05:58:11;17.80;99.90
4356;DHT22;64374;51.482;7.408;2023-07-31T06:00:42;18.00;99.90
4356;DHT22;64374;51.482;7.408;2023-07-31T06:03:33;17.90;99.90
4356;DHT22;64374;51.482;7.408;2023-07-31T06:06:01;17.50;99.90
4356;DHT22;64374;51.482;7.408;2023-07-31T06:08:32;17.50;99.90
4356;DHT22;64374;51.482;7.408;2023-07-31T06:11:03;17.70;99.90
4356;DHT22;64374;51.482;7.408;2023-07-31T06:13:32;17.80;99.90
4356;DHT22;64374;51.482;7.408;2023-07-31T06:16:10;17.90;99.90
4356;DHT22;64374;51.482;7.408;2023-07-31T06:18:44;17.80;99.90
4356;DHT22;64374;51.482;7.408;2023-07-31T06:21:12;17.80;99.90
4356;DHT22;64374;51.482;7.408;2023-07-31T06:23:44;17.70;99.90
4356;DHT22;64374;51.482;7.408;2023-07-31T06:26:12;17.50;99.90
4356;DHT22;64374;51.482;7.408;2023-07-31T06:28:40;17.40;99.90
4356;DHT22;64374;51.482;7.408;2023-07-31T06:31:08;17.50;99.90
4356;DHT22;64374;51.482;7.408;2023-07-31T06:33:39;17.70;99.90
4356;DHT22;64374;51.482;7.408;2023-07-31T06:36:11;18.00;99.90
4356;DHT22;64374;51.482;7.408;2023-07-31T06:38:39;17.80;99.90
4356;DHT22;64374;51.482;7.408;2023-07-31T06:41:07;17.80;99.90
4356;DHT22;64374;51.482;7.408;2023-07-31T06:43:36;18.00;99.90
4356;DHT22;64374;51.482;7.408;2023-07-31T06:46:08;17.80;99.90
4356;DHT22;64374;51.482;7.408;2023-07-31T06:48:38;17.90;99.90
4356;DHT22;64374;51.482;7.408;2023-07-31T06:51:09;17.90;99.90
4356;DHT22;64374;51.482;7.408;2023-07-31T06:53:43;17.90;99.90
4356;DHT22;64374;51.482;7.408;2023-07-31T06:56:12;18.00;99.90
4356;DHT22;64374;51.482;7.408;2023-07-31T06:58:40;18.00;99.90
4356;DHT22;64374;51.482;7.408;2023-07-31T07:01:08;18.20;99.90
4356;DHT22;64374;51.482;7.408;2023-07-31T07:03:37;18.10;99.90
4356;DHT22;64374;51.482;7.408;2023-07-31T07:06:05;18.10;99.90
4356;DHT22;64374;51.482;7.408;2023-07-31T07:08:34;17.80;99.90
4356;DHT22;64374;51.482;7.408;2023-07-31T07:11:02;18.00;99.90
4356;DHT22;64374;51.482;7.408;2023-07-31T07:13:30;17.90;99.90
4356;DHT22;64374;51.482;7.408;2023-07-31T07:15:59;18.00;99.90
4356;DHT22;64374;51.482;7.408;2023-07-31T07:18:27;18.10;99.90
4356;DHT22;64374;51.482;7.408;2023-07-31T07:20:56;17.90;99.90
4356;DHT22;64374;51.482;7.408;2023-07-31T07:23:29;17.90;99.90
4356;DHT22;64374;51.482;7.408;2023-07-31T07:25:58;18.10;99.90
4356;DHT22;64374;51.482;7.408;2023-07-31T07:28:27;17.70;99.90
4356;DHT22;64374;51.482;7.408;2023-07-31T07:31:06;17.80;99.90
4356;DHT22;64374;51.482;7.408;2023-07-31T07:33:34;17.80;99.90
4356;DHT22;64374;51.482;7.408;2023-07-31T07:36:03;17.50;99.90
4356;DHT22;64374;51.482;7.408;2023-07-31T07:38:33;17.40;99.90
4356;DHT22;64374;51.482;7.408;2023-07-31T07:41:02;17.50;99.90
4356;DHT22;64374;51.482;7.408;2023-07-31T07:43:30;17.60;99.90
4356;DHT22;64374;51.482;7.408;2023-07-31T07:45:58;17.70;99.90
4356;DHT22;64374;51.482;7.408;2023-07-31T07:48:27;17.80;99.90
4356;DHT22;64374;51.482;7.408;2023-07-31T07:50:55;17.80;99.90
4356;DHT22;64374;51.482;7.408;2023-07-31T07:53:23;18.00;99.90
4356;DHT22;64374;51.482;7.408;2023-07-31T07:55:51;18.00;99.90
4356;DHT22;64374;51.482;7.408;2023-07-31T07:58:23;18.00;99.90
4356;DHT22;64374;51.482;7.408;2023-07-31T08:00:52;17.80;99.90
4356;DHT22;64374;51.482;7.408;2023-07-31T08:03:23;17.80;99.90
4356;DHT22;64374;51.482;7.408;2023-07-31T08:05:52;17.70;99.90
4356;DHT22;64374;51.482;7.408;2023-07-31T08:08:21;17.60;99.90
4356;DHT22;64374;51.482;7.408;2023-07-31T08:10:49;17.40;99.90
4356;DHT22;64374;51.482;7.408;2023-07-31T08:13:17;17.60;99.90
4356;DHT22;64374;51.482;7.408;2023-07-31T08:15:47;17.70;99.90
4356;DHT22;64374;51.482;7.408;2023-07-31T08:18:15;17.90;99.90
4356;DHT22;64374;51.482;7.408;2023-07-31T08:20:44;17.80;99.90
4356;DHT22;64374;51.482;7.408;2023-07-31T08:23:12;18.00;99.90
4356;DHT22;64374;51.482;7.408;2023-07-31T08:25:41;18.10;99.90
4356;DHT22;64374;51.482;7.408;2023-07-31T08:28:12;18.00;99.90
4356;DHT22;64374;51.482;7.408;2023-07-31T08:30:41;17.90;99.90
4356;DHT22;64374;51.482;7.408;2023-07-31T08:33:13;17.80;99.90
4356;DHT22;64374;51.482;7.408;2023-07-31T08:35:44;17.60;99.90
4356;DHT22;64374;51.482;7.408;2023-07-31T08:38:12;17.90;99.90
4356;DHT22;64374;51.482;7.408;2023-07-31T08:40:40;17.60;99.90
4356;DHT22;64374;51.482;7.408;2023-07-31T08:43:11;17.60;99.90
4356;DHT22;64374;51.482;7.408;2023-07-31T08:45:53;17.70;99.90
4356;DHT22;64374;51.482;7.408;2023-07-31T08:48:23;17.50;99.90
4356;DHT22;64374;51.482;7.408;2023-07-31T08:50:52;17.30;99.90
4356;DHT22;64374;51.482;7.408;2023-07-31T08:53:21;17.20;99.90
4356;DHT22;64374;51.482;7.408;2023-07-31T08:55:52;17.40;99.90
4356;DHT22;64374;51.482;7.408;2023-07-31T08:58:21;17.50;99.90
4356;DHT22;64374;51.482;7.408;2023-07-31T09:00:51;17.60;99.90
4356;DHT22;64374;51.482;7.408;2023-07-31T09:03:23;17.70;99.90
4356;DHT22;64374;51.482;7.408;2023-07-31T09:05:53;18.00;99.90
4356;DHT22;64374;51.482;7.408;2023-07-31T09:08:22;17.70;99.90
4356;DHT22;64374;51.482;7.408;2023-07-31T09:10:51;17.50;99.90
4356;DHT22;64374;51.482;7.408;2023-07-31T09:13:22;17.40;99.90
4356;DHT22;64374;51.482;7.408;2023-07-31T09:15:51;17.50;99.90
4356;DHT22;64374;51.482;7.408;2023-07-31T09:18:19;17.60;99.90
4356;DHT22;64374;51.482;7.408;2023-07-31T09:21:02;17.60;99.90
4356;DHT22;64374;51.482;7.408;2023-07-31T09:23:43;17.70;99.90
4356;DHT22;64374;51.482;7.408;2023-07-31T09:26:29;17.40;99.90
4356;DHT22;64374;51.482;7.408;2023-07-31T09:29:00;17.10;99.90
4356;DHT22;64374;51.482;7.408;2023-07-31T09:31:39;17.10;99.90
4356;DHT22;64374;51.482;7.408;2023-07-31T09:34:08;17.20;99.90
4356;DHT22;64374;51.482;7.408;2023-07-31T09:36:43;17.20;99.90
4356;DHT22;64374;51.482;7.408;2023-07-31T09:39:13;17.20;99.90
4356;DHT22;64374;51.482;7.408;2023-07-31T09:41:43;17.20;99.90
4356;DHT22;64374;51.482;7.408;2023-07-31T09:44:14;17.40;99.90
4356;DHT22;64374;51.482;7.408;2023-07-31T09:46:42;17.30;99.90
4356;DHT22;64374;51.482;7.408;2023-07-31T09:49:12;17.40;99.90
4356;DHT22;64374;51.482;7.408;2023-07-31T09:51:42;17.70;99.90
4356;DHT22;64374;51.482;7.408;2023-07-31T09:54:24;17.60;99.90
4356;DHT22;64374;51.482;7.408;2023-07-31T09:56:54;18.00;99.90
4356;DHT22;64374;51.482;7.408;2023-07-31T09:59:29;17.80;99.90
4356;DHT22;64374;51.482;7.408;2023-07-31T10:01:57;18.10;99.90
4356;DHT22;64374;51.482;7.408;2023-07-31T10:04:27;17.80;99.90
4356;DHT22;64374;51.482;7.408;2023-07-31T10:06:58;17.80;99.90
4356;DHT22;64374;51.482;7.408;2023-07-31T10:09:30;17.90;99.90
4356;DHT22;64374;51.482;7.408;2023-07-31T10:12:00;17.40;99.90
4356;DHT22;64374;51.482;7.408;2023-07-31T10:14:37;17.60;99.90
4356;DHT22;64374;51.482;7.408;2023-07-31T10:17:05;17.80;99.90
4356;DHT22;64374;51.482;7.408;2023-07-31T10:19:35;17.80;99.90
4356;DHT22;64374;51.482;7.408;2023-07-31T10:22:09;17.90;99.90
4356;DHT22;64374;51.482;7.408;2023-07-31T10:24:40;17.70;99.90
4356;DHT22;64374;51.482;7.408;2023-07-31T10:27:10;17.90;99.90
4356;DHT22;64374;51.482;7.408;2023-07-31T10:29:39;17.80;99.90
4356;DHT22;64374;51.482;7.408;2023-07-31T10:32:09;17.90;99.90
4356;DHT22;64374;51.482;7.408;2023-07-31T10:34:45;18.00;99.90
4356;DHT22;64374;51.482;7.408;2023-07-31T10:37:29;18.10;99.90
4356;DHT22;64374;51.482;7.408;2023-07-31T10:40:09;18.20;99.90
4356;DHT22;64374;51.482;7.408;2023-07-31T10:42:45;18.00;99.90
4356;DHT22;64374;51.482;7.408;2023-07-31T10:45:31;18.20;99.90
4356;DHT22;64374;51.482;7.408;2023-07-31T10:48:02;18.40;99.90
4356;DHT22;64374;51.482;7.408;2023-07-31T10:50:31;18.30;99.90
4356;DHT22;64374;51.482;7.408;2023-07-31T10:53:01;18.20;99.90
4356;DHT22;64374;51.482;7.408;2023-07-31T10:55:39;18.10;99.90
4356;DHT22;64374;51.482;7.408;2023-07-31T10:58:09;18.30;99.90
4356;DHT22;64374;51.482;7.408;2023-07-31T11:00:41;18.00;99.90
4356;DHT22;64374;51.482;7.408;2023-07-31T11:03:17;18.00;99.90
4356;DHT22;64374;51.482;7.408;2023-07-31T11:05:48;17.80;99.90
4356;DHT22;64374;51.482;7.408;2023-07-31T11:08:20;17.80;99.90
4356;DHT22;64374;51.482;7.408;2023-07-31T11:11:05;17.60;99.90
4356;DHT22;64374;51.482;7.408;2023-07-31T11:13:39;17.50;99.90
4356;DHT22;64374;51.482;7.408;2023-07-31T11:16:11;17.50;99.90
4356;DHT22;64374;51.482;7.408;2023-07-31T11:18:40;17.40;99.90
4356;DHT22;64374;51.482;7.408;2023-07-31T11:21:12;17.50;99.90
4356;DHT22;64374;51.482;7.408;2023-07-31T11:23:45;17.60;99.90
4356;DHT22;64374;51.482;7.408;2023-07-31T11:26:14;17.80;99.90
4356;DHT22;64374;51.482;7.408;2023-07-31T11:28:43;17.90;99.90
4356;DHT22;64374;51.482;7.408;2023-07-31T11:31:11;17.70;99.90
4356;DHT22;64374;51.482;7.408;2023-07-31T11:33:42;17.70;99.90
4356;DHT22;64374;51.482;7.408;2023-07-31T11:36:14;17.90;99.90
4356;DHT22;64374;51.482;7.408;2023-07-31T11:38:47;18.00;99.90
4356;DHT22;64374;51.482;7.408;2023-07-31T11:41:18;18.20;99.90
4356;DHT22;64374;51.482;7.408;2023-07-31T11:43:46;18.30;99.90
4356;DHT22;64374;51.482;7.408;2023-07-31T11:46:16;18.20;99.90
4356;DHT22;64374;51.482;7.408;2023-07-31T11:48:48;18.00;99.90
4356;DHT22;64374;51.482;7.408;2023-07-31T11:51:17;18.00;99.90
4356;DHT22;64374;51.482;7.408;2023-07-31T11:53:51;18.30;99.90
4356;DHT22;64374;51.482;7.408;2023-07-31T11:56:21;18.30;99.90
4356;DHT22;64374;51.482;7.408;2023-07-31T11:58:53;18.00;99.90
4356;DHT22;64374;51.482;7.408;2023-07-31T12:01:22;18.00;99.90
4356;DHT22;64374;51.482;7.408;2023-07-31T12:03:55;18.10;99.90
4356;DHT22;64374;51.482;7.408;2023-07-31T12:06:33;18.30;99.90
4356;DHT22;64374;51.482;7.408;2023-07-31T12:09:05;18.10;99.90
4356;DHT22;64374;51.482;7.408;2023-07-31T12:11:42;18.20;99.90
4356;DHT22;64374;51.482;7.408;2023-07-31T12:14:20;18.40;99.90
4356;DHT22;64374;51.482;7.408;2023-07-31T12:17:04;18.30;99.90
4356;DHT22;64374;51.482;7.408;2023-07-31T12:19:37;18.10;99.90
4356;DHT22;64374;51.482;7.408;2023-07-31T12:22:11;18.30;99.90
4356;DHT22;64374;51.482;7.408;2023-07-31T12:24:48;18.40;99.90
4356;DHT22;64374;51.482;7.408;2023-07-31T12:27:16;18.30;99.90
4356;DHT22;64374;51.482;7.408;2023-07-31T12:29:49;18.30;99.90
4356;DHT22;64374;51.482;7.408;2023-07-31T12:32:21;18.30;99.90
4356;DHT22;64374;51.482;7.408;2023-07-31T12:34:49;18.60;99.90
4356;DHT22;64374;51.482;7.408;2023-07-31T12:37:20;18.80;99.90
4356;DHT22;64374;51.482;7.408;2023-07-31T12:39:53;18.70;99.90
4356;DHT22;64374;51.482;7.408;2023-07-31T12:42:21;18.80;99.90
4356;DHT22;64374;51.482;7.408;2023-07-31T12:44:50;19.10;99.90
4356;DHT22;64374;51.482;7.408;2023-07-31T12:47:24;18.90;99.90
4356;DHT22;64374;51.482;7.408;2023-07-31T12:49:54;18.70;99.90
4356;DHT22;64374;51.482;7.408;2023-07-31T12:52:27;18.40;99.90
4356;DHT22;64374;51.482;7.408;2023-07-31T12:54:57;18.40;99.90
4356;DHT22;64374;51.482;7.408;2023-07-31T12:57:27;18.50;99.90
4356;DHT22;64374;51.482;7.408;2023-07-31T12:59:58;18.60;99.90
4356;DHT22;64374;51.482;7.408;2023-07-31T13:02:26;18.70;99.90
4356;DHT22;64374;51.482;7.408;2023-07-31T13:04:57;18.60;99.90
4356;DHT22;64374;51.482;7.408;2023-07-31T13:07:25;18.50;99.90
4356;DHT22;64374;51.482;7.408;2023-07-31T13:10:00;18.30;99.90
4356;DHT22;64374;51.482;7.408;2023-07-31T13:12:31;18.50;99.90
4356;DHT22;64374;51.482;7.408;2023-07-31T13:14:59;18.60;99.90
4356;DHT22;64374;51.482;7.408;2023-07-31T13:17:30;18.70;99.90
4356;DHT22;64374;51.482;7.408;2023-07-31T13:20:00;18.70;99.90
4356;DHT22;64374;51.482;7.408;2023-07-31T13:22:29;18.60;99.90
4356;DHT22;64374;51.482;7.408;2023-07-31T13:25:01;18.40;99.90
4356;DHT22;64374;51.482;7.408;2023-07-31T13:27:30;18.50;99.90
4356;DHT22;64374;51.482;7.408;2023-07-31T13:29:58;18.60;99.90
4356;DHT22;64374;51.482;7.408;2023-07-31T13:32:26;18.80;99.90
4356;DHT22;64374;51.482;7.408;2023-07-31T13:34:55;18.80;99.90
4356;DHT22;64374;51.482;7.408;2023-07-31T13:37:25;18.50;99.90
4356;DHT22;64374;51.482;7.408;2023-07-31T13:39:53;18.60;99.90
4356;DHT22;64374;51.482;7.408;2023-07-31T13:42:25;18.40;99.90
4356;DHT22;64374;51.482;7.408;2023-07-31T13:44:55;18.30;99.90
4356;DHT22;64374;51.482;7.408;2023-07-31T13:47:26;18.40;99.90
4356;DHT22;64374;51.482;7.408;2023-07-31T13:49:57;18.40;99.90
4356;DHT22;64374;51.482;7.408;2023-07-31T13:52:26;18.60;99.90
4356;DHT22;64374;51.482;7.408;2023-07-31T13:54:57;18.60;99.90
4356;DHT22;64374;51.482;7.408;2023-07-31T13:57:26;18.80;99.90
4356;DHT22;64374;51.482;7.408;2023-07-31T13:59:57;18.50;99.90
4356;DHT22;64374;51.482;7.408;2023-07-31T14:02:25;18.40;99.90
4356;DHT22;64374;51.482;7.408;2023-07-31T14:04:54;18.30;99.90
4356;DHT22;64374;51.482;7.408;2023-07-31T14:07:24;18.60;99.90
4356;DHT22;64374;51.482;7.408;2023-07-31T14:09:53;18.40;99.90
4356;DHT22;64374;51.482;7.408;2023-07-31T14:12:21;18.40;99.90
4356;DHT22;64374;51.482;7.408;2023-07-31T14:15:10;18.50;99.90
4356;DHT22;64374;51.482;7.408;2023-07-31T14:17:38;18.70;99.90
4356;DHT22;64374;51.482;7.408;2023-07-31T14:20:08;18.60;99.90
4356;DHT22;64374;51.482;7.408;2023-07-31T14:22:37;18.80;99.90
4356;DHT22;64374;51.482;7.408;2023-07-31T14:25:06;18.90;99.90
4356;DHT22;64374;51.482;7.408;2023-07-31T14:27:34;19.10;99.90
4356;DHT22;64374;51.482;7.408;2023-07-31T14:30:02;19.00;99.90
4356;DHT22;64374;51.482;7.408;2023-07-31T14:32:32;19.10;99.90
4356;DHT22;64374;51.482;7.408;2023-07-31T14:35:01;19.30;99.90
4356;DHT22;64374;51.482;7.408;2023-07-31T14:37:37;19.30;99.90
4356;DHT22;64374;51.482;7.408;2023-07-31T14:40:07;19.60;99.90
4356;DHT22;64374;51.482;7.408;2023-07-31T14:42:35;19.80;99.90
4356;DHT22;64374;51.482;7.408;2023-07-31T14:45:06;19.70;99.90
4356;DHT22;64374;51.482;7.408;2023-07-31T14:47:36;19.60;99.90
4356;DHT22;64374;51.482;7.408;2023-07-31T14:50:06;19.40;99.90
4356;DHT22;64374;51.482;7.408;2023-07-31T14:52:34;19.60;99.90
4356;DHT22;64374;51.482;7.408;2023-07-31T14:55:02;19.70;99.90
4356;DHT22;64374;51.482;7.408;2023-07-31T14:57:31;19.70;99.90
4356;DHT22;64374;51.482;7.408;2023-07-31T14:59:59;19.30;99.90
4356;DHT22;64374;51.482;7.408;2023-07-31T15:02:27;19.40;99.90
4356;DHT22;64374;51.482;7.408;2023-07-31T15:04:57;19.50;99.90
4356;DHT22;64374;51.482;7.408;2023-07-31T15:07:25;19.40;99.90
4356;DHT22;64374;51.482;7.408;2023-07-31T15:09:56;19.20;99.90
4356;DHT22;64374;51.482;7.408;2023-07-31T15:12:27;19.10;99.90
4356;DHT22;64374;51.482;7.408;2023-07-31T15:14:56;19.00;99.90
4356;DHT22;64374;51.482;7.408;2023-07-31T15:17:24;19.10;99.90
4356;DHT22;64374;51.482;7.408;2023-07-31T15:19:52;19.30;99.90
4356;DHT22;64374;51.482;7.408;2023-07-31T15:22:21;19.50;99.90
4356;DHT22;64374;51.482;7.408;2023-07-31T15:24:50;19.40;99.90
4356;DHT22;64374;51.482;7.408;2023-07-31T15:27:20;19.50;99.90
4356;DHT22;64374;51.482;7.408;2023-07-31T15:29:49;19.40;99.90
4356;DHT22;64374;51.482;7.408;2023-07-31T15:32:25;19.50;99.90
4356;DHT22;64374;51.482;7.408;2023-07-31T15:34:54;19.70;99.90
4356;DHT22;64374;51.482;7.408;2023-07-31T15:37:24;20.00;99.90
4356;DHT22;64374;51.482;7.408;2023-07-31T15:39:52;20.20;99.90
4356;DHT22;64374;51.482;7.408;2023-07-31T15:42:20;20.00;99.90
4356;DHT22;64374;51.482;7.408;2023-07-31T15:44:48;20.00;99.90
4356;DHT22;64374;51.482;7.408;2023-07-31T15:47:28;19.60;99.90
4356;DHT22;64374;51.482;7.408;2023-07-31T15:49:56;19.70;99.90
4356;DHT22;64374;51.482;7.408;2023-07-31T15:52:25;19.60;99.90
4356;DHT22;64374;51.482;7.408;2023-07-31T15:54:54;19.70;99.90
4356;DHT22;64374;51.482;7.408;2023-07-31T15:57:24;19.70;99.90
4356;DHT22;64374;51.482;7.408;2023-07-31T15:59:56;19.80;99.90
4356;DHT22;64374;51.482;7.408;2023-07-31T16:02:25;19.80;99.90
4356;DHT22;64374;51.482;7.408;2023-07-31T16:04:53;19.40;99.90
4356;DHT22;64374;51.482;7.408;2023-07-31T16:07:25;19.40;99.90